Time,TemperatureF,DewpointF,PressureIn,WindDirection,WindDirectionDegrees,WindSpeedMPH,WindSpeedGustMPH,Humidity,HourlyPrecipIn,Conditions,Clouds,dailyrainin,SoftwareType,DateUTC
2013-06-15 00:00:00,62.5,53.4,29.77,WSW,257,0.0,8.0,72,0.00,,---,0.75,VWS V14.01,2013-06-15 04:00:00,
2013-06-15 00:01:00,62.5,53.4,29.77,WNW,286,6.0,8.0,72,0.00,,---,0.75,VWS V14.01,2013-06-15 04:01:00,
2013-06-15 00:05:00,62.5,53.7,29.77,WSW,257,0.0,5.0,73,0.00,,---,0.00,VWS V14.01,2013-06-15 04:05:00,
2013-06-15 00:06:00,62.5,53.7,29.77,WSW,255,5.0,5.0,73,0.00,,---,0.00,VWS V14.01,2013-06-15 04:06:00,
2013-06-15 00:10:00,62.6,53.8,29.77,WSW,254,0.0,6.0,73,0.00,,---,0.00,VWS V14.01,2013-06-15 04:10:00,
2013-06-15 00:11:00,62.6,53.8,29.77,West,262,3.0,4.0,73,0.00,,---,0.00,VWS V14.01,2013-06-15 04:11:00,
2013-06-15 00:15:00,62.7,54.3,29.77,NW,315,0.0,7.0,74,0.00,,---,0.00,VWS V14.01,2013-06-15 04:15:00,
2013-06-15 00:16:00,62.6,54.2,29.77,NW,305,0.0,7.0,74,0.00,,---,0.00,VWS V14.01,2013-06-15 04:16:00,
2013-06-15 00:20:00,62.8,54.4,29.77,West,260,4.0,13.0,74,0.00,,---,0.00,VWS V14.01,2013-06-15 04:20:00,
2013-06-15 00:21:00,62.7,54.3,29.77,WNW,284,3.0,7.0,74,0.00,,---,0.00,VWS V14.01,2013-06-15 04:21:00,
2013-06-15 00:25:00,63.0,55.0,29.77,West,279,0.0,15.0,75,0.00,,---,0.00,VWS V14.01,2013-06-15 04:25:00,
2013-06-15 00:26:00,62.9,54.9,29.77,NW,313,0.0,7.0,75,0.00,,---,0.00,VWS V14.01,2013-06-15 04:26:00,
2013-06-15 00:30:00,63.2,55.5,29.77,NNW,335,4.0,11.0,76,0.00,,---,0.00,VWS V14.01,2013-06-15 04:30:00,
2013-06-15 00:31:00,63.2,55.2,29.78,WNW,291,3.0,11.0,75,0.00,,---,0.00,VWS V14.01,2013-06-15 04:31:00,
2013-06-15 00:35:00,63.4,56.1,29.77,NW,321,10.0,10.0,77,0.00,,---,0.00,VWS V14.01,2013-06-15 04:35:00,
2013-06-15 00:36:00,63.3,55.6,29.77,NW,304,2.0,5.0,76,0.00,,---,0.00,VWS V14.01,2013-06-15 04:36:00,
2013-06-15 00:40:00,63.6,56.3,29.77,NW,305,3.0,10.0,77,0.00,,---,0.00,VWS V14.01,2013-06-15 04:40:00,
2013-06-15 00:41:00,63.5,56.2,29.77,WNW,294,0.0,10.0,77,0.00,,---,0.00,VWS V14.01,2013-06-15 04:41:00,
2013-06-15 00:45:00,63.7,56.4,29.77,NW,317,0.0,10.0,77,0.00,,---,0.00,VWS V14.01,2013-06-15 04:45:00,
2013-06-15 00:46:00,63.6,56.3,29.77,NW,325,5.0,7.0,77,0.00,,---,0.00,VWS V14.01,2013-06-15 04:46:00,
2013-06-15 00:50:00,63.8,56.5,29.77,NNW,328,0.0,6.0,77,0.00,,---,0.00,VWS V14.01,2013-06-15 04:50:00,
2013-06-15 00:51:00,63.8,56.5,29.77,NW,315,3.0,6.0,77,0.00,,---,0.00,VWS V14.01,2013-06-15 04:51:00,
2013-06-15 00:55:00,63.8,56.8,29.77,WNW,290,2.0,7.0,78,0.00,,---,0.00,VWS V14.01,2013-06-15 04:55:00,
2013-06-15 00:56:00,63.8,56.5,29.77,NW,319,0.0,7.0,77,0.00,,---,0.00,VWS V14.01,2013-06-15 04:56:00,
2013-06-15 01:00:00,63.8,56.8,29.78,NW,311,1.0,6.0,78,0.00,,---,0.00,VWS V14.01,2013-06-15 05:00:00,
2013-06-15 01:01:00,63.8,56.8,29.77,WNW,303,6.0,6.0,78,0.00,,---,0.00,VWS V14.01,2013-06-15 05:01:00,
2013-06-15 01:05:00,63.7,56.7,29.78,NNW,342,3.0,8.0,78,0.00,,---,0.00,VWS V14.01,2013-06-15 05:05:00,
2013-06-15 01:06:00,63.7,56.7,29.78,NW,316,2.0,5.0,78,0.00,,---,0.00,VWS V14.01,2013-06-15 05:06:00,
2013-06-15 01:10:00,63.8,56.8,29.78,NW,318,0.0,9.0,78,0.00,,---,0.00,VWS V14.01,2013-06-15 05:10:00,
2013-06-15 01:11:00,63.7,56.7,29.78,NW,309,6.0,9.0,78,0.00,,---,0.00,VWS V14.01,2013-06-15 05:11:00,
2013-06-15 01:15:00,63.7,56.7,29.78,WNW,294,7.0,10.0,78,0.00,,---,0.00,VWS V14.01,2013-06-15 05:15:00,
2013-06-15 01:16:00,63.7,56.7,29.78,NW,312,2.0,9.0,78,0.00,,---,0.00,VWS V14.01,2013-06-15 05:16:00,
2013-06-15 01:20:00,63.6,56.6,29.78,WSW,257,4.0,9.0,78,0.00,,---,0.00,VWS V14.01,2013-06-15 05:20:00,
2013-06-15 01:21:00,63.7,56.7,29.78,NW,317,4.0,7.0,78,0.00,,---,0.00,VWS V14.01,2013-06-15 05:21:00,
2013-06-15 01:25:00,63.6,56.6,29.78,NW,307,3.0,9.0,78,0.00,,---,0.00,VWS V14.01,2013-06-15 05:25:00,
2013-06-15 01:26:00,63.6,56.6,29.78,WNW,284,9.0,9.0,78,0.00,,---,0.00,VWS V14.01,2013-06-15 05:26:00,
2013-06-15 01:30:00,63.6,56.6,29.78,NNW,348,1.0,12.0,78,0.00,,---,0.00,VWS V14.01,2013-06-15 05:30:00,
2013-06-15 01:31:00,63.6,56.6,29.78,NW,319,4.0,9.0,78,0.00,,---,0.00,VWS V14.01,2013-06-15 05:31:00,
2013-06-15 01:35:00,63.6,56.6,29.78,NW,312,7.0,7.0,78,0.00,,---,0.00,VWS V14.01,2013-06-15 05:35:00,
2013-06-15 01:36:00,63.6,56.6,29.78,WSW,251,5.0,6.0,78,0.00,,---,0.00,VWS V14.01,2013-06-15 05:36:00,
2013-06-15 01:40:00,63.5,56.5,29.78,NNW,329,5.0,8.0,78,0.00,,---,0.00,VWS V14.01,2013-06-15 05:40:00,
2013-06-15 01:41:00,63.5,56.5,29.78,NW,313,7.0,8.0,78,0.00,,---,0.00,VWS V14.01,2013-06-15 05:41:00,
2013-06-15 01:45:00,63.5,56.5,29.78,WNW,300,4.0,10.0,78,0.00,,---,0.00,VWS V14.01,2013-06-15 05:45:00,
2013-06-15 01:46:00,63.5,56.5,29.78,NNW,332,1.0,8.0,78,0.00,,---,0.00,VWS V14.01,2013-06-15 05:46:00,
2013-06-15 01:50:00,63.4,56.4,29.79,NW,319,7.0,10.0,78,0.00,,---,0.00,VWS V14.01,2013-06-15 05:50:00,
2013-06-15 01:51:00,63.4,56.4,29.79,WNW,298,0.0,8.0,78,0.00,,---,0.00,VWS V14.01,2013-06-15 05:51:00,
2013-06-15 01:55:00,63.4,56.4,29.79,WNW,299,0.0,9.0,78,0.00,,---,0.00,VWS V14.01,2013-06-15 05:55:00,
2013-06-15 01:56:00,63.4,56.4,29.79,West,268,0.0,8.0,78,0.00,,---,0.00,VWS V14.01,2013-06-15 05:56:00,
2013-06-15 02:00:00,63.3,56.3,29.79,North,4,0.0,8.0,78,0.00,,---,0.00,VWS V14.01,2013-06-15 06:00:00,
2013-06-15 02:01:00,63.4,56.4,29.79,WNW,302,0.0,8.0,78,0.00,,---,0.00,VWS V14.01,2013-06-15 06:01:00,
2013-06-15 02:05:00,63.2,56.2,29.79,NW,324,1.0,8.0,78,0.00,,---,0.00,VWS V14.01,2013-06-15 06:05:00,
2013-06-15 02:06:00,63.2,56.2,29.79,NW,308,7.0,7.0,78,0.00,,---,0.00,VWS V14.01,2013-06-15 06:06:00,
2013-06-15 02:10:00,63.1,56.1,29.79,NNW,329,1.0,9.0,78,0.00,,---,0.00,VWS V14.01,2013-06-15 06:10:00,
2013-06-15 02:11:00,63.2,56.2,29.79,WNW,299,2.0,7.0,78,0.00,,---,0.00,VWS V14.01,2013-06-15 06:11:00,
2013-06-15 02:15:00,63.1,56.1,29.79,WNW,299,0.0,12.0,78,0.00,,---,0.00,VWS V14.01,2013-06-15 06:15:00,
2013-06-15 02:16:00,63.1,56.1,29.79,NNW,344,0.0,7.0,78,0.00,,---,0.00,VWS V14.01,2013-06-15 06:16:00,
2013-06-15 02:20:00,63.0,56.0,29.79,WNW,300,4.0,11.0,78,0.00,,---,0.00,VWS V14.01,2013-06-15 06:20:00,
2013-06-15 02:21:00,63.1,56.1,29.79,West,263,4.0,11.0,78,0.00,,---,0.00,VWS V14.01,2013-06-15 06:21:00,
2013-06-15 02:25:00,62.9,55.9,29.79,NW,314,3.0,7.0,78,0.00,,---,0.00,VWS V14.01,2013-06-15 06:25:00,
2013-06-15 02:26:00,63.0,56.0,29.79,NW,313,4.0,7.0,78,0.00,,---,0.00,VWS V14.01,2013-06-15 06:26:00,
2013-06-15 02:30:00,62.7,55.8,29.79,WNW,285,0.0,8.0,78,0.00,,---,0.00,VWS V14.01,2013-06-15 06:30:00,
2013-06-15 02:31:00,62.8,55.8,29.79,West,269,3.0,8.0,78,0.00,,---,0.00,VWS V14.01,2013-06-15 06:31:00,
2013-06-15 02:35:00,62.7,55.8,29.79,WNW,302,2.0,7.0,78,0.00,,---,0.00,VWS V14.01,2013-06-15 06:35:00,
2013-06-15 02:36:00,62.7,55.8,29.79,WNW,303,5.0,7.0,78,0.00,,---,0.00,VWS V14.01,2013-06-15 06:36:00,
2013-06-15 02:40:00,62.5,55.6,29.79,NW,309,0.0,7.0,78,0.00,,---,0.00,VWS V14.01,2013-06-15 06:40:00,
2013-06-15 02:41:00,62.6,55.7,29.79,NW,321,6.0,7.0,78,0.00,,---,0.00,VWS V14.01,2013-06-15 06:41:00,
2013-06-15 02:45:00,62.5,55.6,29.79,NW,315,4.0,7.0,78,0.00,,---,0.00,VWS V14.01,2013-06-15 06:45:00,
2013-06-15 02:46:00,62.6,55.7,29.79,North,351,0.0,7.0,78,0.00,,---,0.00,VWS V14.01,2013-06-15 06:46:00,
2013-06-15 02:50:00,62.4,55.5,29.80,NW,311,2.0,8.0,78,0.00,,---,0.00,VWS V14.01,2013-06-15 06:50:00,
2013-06-15 02:51:00,62.5,55.6,29.80,NW,319,1.0,4.0,78,0.00,,---,0.00,VWS V14.01,2013-06-15 06:51:00,
2013-06-15 02:55:00,62.3,55.4,29.80,NW,321,0.0,9.0,78,0.00,,---,0.00,VWS V14.01,2013-06-15 06:55:00,
2013-06-15 02:56:00,62.4,55.5,29.80,NW,326,0.0,9.0,78,0.00,,---,0.00,VWS V14.01,2013-06-15 06:56:00,
2013-06-15 03:00:00,62.3,55.4,29.80,NW,323,1.0,7.0,78,0.00,,---,0.00,VWS V14.01,2013-06-15 07:00:00,
2013-06-15 03:01:00,62.3,55.4,29.80,WNW,299,3.0,7.0,78,0.00,,---,0.00,VWS V14.01,2013-06-15 07:01:00,
2013-06-15 03:05:00,62.2,55.3,29.80,NW,317,7.0,7.0,78,0.00,,---,0.00,VWS V14.01,2013-06-15 07:05:00,
2013-06-15 03:06:00,62.3,55.4,29.80,NNW,328,2.0,7.0,78,0.00,,---,0.00,VWS V14.01,2013-06-15 07:06:00,
2013-06-15 03:10:00,62.0,55.1,29.80,WNW,302,0.0,7.0,78,0.00,,---,0.00,VWS V14.01,2013-06-15 07:10:00,
2013-06-15 03:11:00,62.1,55.2,29.80,NW,310,0.0,7.0,78,0.00,,---,0.00,VWS V14.01,2013-06-15 07:11:00,
2013-06-15 03:15:00,61.9,54.6,29.81,NNW,348,2.0,8.0,77,0.00,,---,0.00,VWS V14.01,2013-06-15 07:15:00,
2013-06-15 03:16:00,62.0,55.1,29.81,NW,305,5.0,8.0,78,0.00,,---,0.00,VWS V14.01,2013-06-15 07:16:00,
2013-06-15 03:20:00,61.8,54.9,29.80,NW,312,0.0,7.0,78,0.00,,---,0.00,VWS V14.01,2013-06-15 07:20:00,
2013-06-15 03:21:00,61.8,54.9,29.80,WNW,300,0.0,7.0,78,0.00,,---,0.00,VWS V14.01,2013-06-15 07:21:00,
2013-06-15 03:25:00,61.8,54.5,29.81,NW,317,0.0,9.0,77,0.00,,---,0.00,VWS V14.01,2013-06-15 07:25:00,
2013-06-15 03:26:00,61.8,54.5,29.81,WNW,286,9.0,9.0,77,0.00,,---,0.00,VWS V14.01,2013-06-15 07:26:00,
2013-06-15 03:30:00,61.7,54.4,29.81,WNW,297,4.0,7.0,77,0.00,,---,0.00,VWS V14.01,2013-06-15 07:30:00,
2013-06-15 03:31:00,61.8,54.5,29.81,NW,313,0.0,4.0,77,0.00,,---,0.00,VWS V14.01,2013-06-15 07:31:00,
2013-06-15 03:35:00,61.7,54.4,29.81,WSW,249,1.0,6.0,77,0.00,,---,0.00,VWS V14.01,2013-06-15 07:35:00,
2013-06-15 03:36:00,61.7,54.4,29.81,NW,313,5.0,6.0,77,0.00,,---,0.00,VWS V14.01,2013-06-15 07:36:00,
2013-06-15 03:40:00,61.6,54.3,29.81,NNW,329,1.0,8.0,77,0.00,,---,0.00,VWS V14.01,2013-06-15 07:40:00,
2013-06-15 03:41:00,61.6,54.3,29.82,NW,315,1.0,6.0,77,0.00,,---,0.00,VWS V14.01,2013-06-15 07:41:00,
2013-06-15 03:45:00,61.6,54.3,29.81,WNW,299,1.0,8.0,77,0.00,,---,0.00,VWS V14.01,2013-06-15 07:45:00,
2013-06-15 03:46:00,61.6,54.3,29.82,NW,305,0.0,8.0,77,0.00,,---,0.00,VWS V14.01,2013-06-15 07:46:00,
2013-06-15 03:50:00,61.6,54.3,29.82,NW,321,6.0,8.0,77,0.00,,---,0.00,VWS V14.01,2013-06-15 07:50:00,
2013-06-15 03:51:00,61.6,54.3,29.82,WNW,292,2.0,8.0,77,0.00,,---,0.00,VWS V14.01,2013-06-15 07:51:00,
2013-06-15 03:55:00,61.7,54.4,29.82,NW,304,0.0,7.0,77,0.00,,---,0.00,VWS V14.01,2013-06-15 07:55:00,
2013-06-15 03:56:00,61.7,54.4,29.82,NW,323,2.0,7.0,77,0.00,,---,0.00,VWS V14.01,2013-06-15 07:56:00,
2013-06-15 04:00:00,61.7,54.4,29.82,NW,313,6.0,7.0,77,0.00,,---,0.00,VWS V14.01,2013-06-15 08:00:00,
2013-06-15 04:01:00,61.7,54.4,29.82,NNW,334,7.0,7.0,77,0.00,,---,0.00,VWS V14.01,2013-06-15 08:01:00,
2013-06-15 04:05:00,61.7,54.4,29.82,NNW,340,1.0,11.0,77,0.00,,---,0.00,VWS V14.01,2013-06-15 08:05:00,
2013-06-15 04:06:00,61.7,54.4,29.82,NNW,348,9.0,11.0,77,0.00,,---,0.00,VWS V14.01,2013-06-15 08:06:00,
2013-06-15 04:10:00,61.7,54.4,29.82,NW,306,0.0,8.0,77,0.00,,---,0.00,VWS V14.01,2013-06-15 08:10:00,
2013-06-15 04:11:00,61.7,54.4,29.83,WNW,283,1.0,7.0,77,0.00,,---,0.00,VWS V14.01,2013-06-15 08:11:00,
2013-06-15 04:15:00,61.7,54.4,29.83,NW,309,0.0,8.0,77,0.00,,---,0.00,VWS V14.01,2013-06-15 08:15:00,
2013-06-15 04:16:00,61.7,54.4,29.82,NNW,347,8.0,8.0,77,0.00,,---,0.00,VWS V14.01,2013-06-15 08:16:00,
2013-06-15 04:20:00,61.6,54.3,29.83,NW,320,8.0,8.0,77,0.00,,---,0.00,VWS V14.01,2013-06-15 08:20:00,
2013-06-15 04:21:00,61.7,54.4,29.83,NW,317,6.0,7.0,77,0.00,,---,0.00,VWS V14.01,2013-06-15 08:21:00,
2013-06-15 04:25:00,61.7,54.4,29.83,WNW,299,2.0,9.0,77,0.00,,---,0.00,VWS V14.01,2013-06-15 08:25:00,
2013-06-15 04:26:00,61.6,54.3,29.83,NW,309,3.0,9.0,77,0.00,,---,0.00,VWS V14.01,2013-06-15 08:26:00,
2013-06-15 04:30:00,61.7,54.4,29.84,NW,310,3.0,8.0,77,0.00,,---,0.00,VWS V14.01,2013-06-15 08:30:00,
2013-06-15 04:31:00,61.7,54.4,29.83,NW,313,7.0,8.0,77,0.00,,---,0.00,VWS V14.01,2013-06-15 08:31:00,
2013-06-15 04:35:00,61.6,54.3,29.84,NW,311,3.0,6.0,77,0.00,,---,0.00,VWS V14.01,2013-06-15 08:35:00,
2013-06-15 04:36:00,61.7,54.4,29.84,NW,315,0.0,6.0,77,0.00,,---,0.00,VWS V14.01,2013-06-15 08:36:00,
2013-06-15 04:40:00,61.6,54.3,29.84,NW,307,4.0,6.0,77,0.00,,---,0.00,VWS V14.01,2013-06-15 08:40:00,
2013-06-15 04:41:00,61.6,54.3,29.83,NNW,328,0.0,3.0,77,0.00,,---,0.00,VWS V14.01,2013-06-15 08:41:00,
2013-06-15 04:45:00,61.5,54.2,29.84,NW,321,4.0,5.0,77,0.00,,---,0.00,VWS V14.01,2013-06-15 08:45:00,
2013-06-15 04:46:00,61.5,54.2,29.84,NNW,336,1.0,4.0,77,0.00,,---,0.00,VWS V14.01,2013-06-15 08:46:00,
2013-06-15 04:50:00,61.4,54.1,29.84,NNW,335,0.0,9.0,77,0.00,,---,0.00,VWS V14.01,2013-06-15 08:50:00,
2013-06-15 04:51:00,61.4,54.1,29.84,NW,305,0.0,9.0,77,0.00,,---,0.00,VWS V14.01,2013-06-15 08:51:00,
2013-06-15 04:55:00,61.3,54.0,29.84,NW,323,2.0,6.0,77,0.00,,---,0.00,VWS V14.01,2013-06-15 08:55:00,
2013-06-15 04:56:00,61.3,54.0,29.84,WNW,299,1.0,6.0,77,0.00,,---,0.00,VWS V14.01,2013-06-15 08:56:00,
2013-06-15 05:00:00,61.1,53.8,29.84,West,280,0.0,8.0,77,0.00,,---,0.00,VWS V14.01,2013-06-15 09:00:00,
2013-06-15 05:01:00,61.2,53.9,29.84,NW,313,2.0,8.0,77,0.00,,---,0.00,VWS V14.01,2013-06-15 09:01:00,
2013-06-15 05:05:00,61.0,53.8,29.84,WNW,284,0.0,9.0,77,0.00,,---,0.00,VWS V14.01,2013-06-15 09:05:00,
2013-06-15 05:06:00,61.1,53.8,29.84,WNW,286,6.0,7.0,77,0.00,,---,0.00,VWS V14.01,2013-06-15 09:06:00,
2013-06-15 05:10:00,61.0,53.8,29.84,NW,312,5.0,7.0,77,0.00,,---,0.00,VWS V14.01,2013-06-15 09:10:00,
2013-06-15 05:11:00,61.0,53.8,29.84,NW,311,6.0,7.0,77,0.00,,---,0.00,VWS V14.01,2013-06-15 09:11:00,
2013-06-15 05:15:00,60.9,53.7,29.84,NW,308,8.0,8.0,77,0.00,,---,0.00,VWS V14.01,2013-06-15 09:15:00,
2013-06-15 05:16:00,60.9,53.7,29.84,NW,308,0.0,5.0,77,0.00,,---,0.00,VWS V14.01,2013-06-15 09:16:00,
2013-06-15 05:20:00,60.8,53.5,29.85,NW,322,4.0,8.0,77,0.00,,---,0.00,VWS V14.01,2013-06-15 09:20:00,
2013-06-15 05:21:00,60.8,53.5,29.85,WNW,294,0.0,8.0,77,0.00,,---,0.00,VWS V14.01,2013-06-15 09:21:00,
2013-06-15 05:25:00,60.8,53.5,29.85,NW,305,0.0,10.0,77,0.00,,---,0.00,VWS V14.01,2013-06-15 09:25:00,
2013-06-15 05:26:00,60.8,53.5,29.85,North,1,0.0,8.0,77,0.00,,---,0.00,VWS V14.01,2013-06-15 09:26:00,
2013-06-15 05:30:00,60.7,53.5,29.86,WNW,292,0.0,8.0,77,0.00,,---,0.00,VWS V14.01,2013-06-15 09:30:00,
2013-06-15 05:31:00,60.7,53.5,29.86,NW,326,6.0,7.0,77,0.00,,---,0.00,VWS V14.01,2013-06-15 09:31:00,
2013-06-15 05:35:00,60.7,53.5,29.86,WNW,303,2.0,8.0,77,0.00,,---,0.00,VWS V14.01,2013-06-15 09:35:00,
2013-06-15 05:36:00,60.7,53.5,29.85,NW,314,3.0,8.0,77,0.00,,---,0.00,VWS V14.01,2013-06-15 09:36:00,
2013-06-15 05:40:00,60.7,53.8,29.86,NNW,331,0.0,7.0,78,0.00,,---,0.00,VWS V14.01,2013-06-15 09:40:00,
2013-06-15 05:41:00,60.7,53.8,29.86,NW,308,0.0,6.0,78,0.00,,---,0.00,VWS V14.01,2013-06-15 09:41:00,
2013-06-15 05:45:00,60.7,53.8,29.86,NW,323,8.0,10.0,78,0.00,,---,0.00,VWS V14.01,2013-06-15 09:45:00,
2013-06-15 05:46:00,60.7,53.8,29.86,NW,305,7.0,9.0,78,0.00,,---,0.00,VWS V14.01,2013-06-15 09:46:00,
2013-06-15 05:50:00,60.9,54.0,29.86,NW,310,8.0,10.0,78,0.00,,---,0.00,VWS V14.01,2013-06-15 09:50:00,
2013-06-15 05:51:00,60.8,53.9,29.86,NW,319,1.0,10.0,78,0.00,,---,0.00,VWS V14.01,2013-06-15 09:51:00,
2013-06-15 05:55:00,61.1,54.2,29.86,NW,312,1.0,9.0,78,0.00,,---,0.00,VWS V14.01,2013-06-15 09:55:00,
2013-06-15 05:56:00,61.0,54.1,29.86,WNW,299,7.0,9.0,78,0.00,,---,0.00,VWS V14.01,2013-06-15 09:56:00,
2013-06-15 06:00:00,61.4,54.5,29.86,NW,326,9.0,9.0,78,0.00,,---,0.00,VWS V14.01,2013-06-15 10:00:00,
2013-06-15 06:01:00,61.3,54.4,29.86,NW,309,6.0,6.0,78,0.00,,---,0.00,VWS V14.01,2013-06-15 10:01:00,
2013-06-15 06:05:00,61.6,54.7,29.86,NW,313,0.0,11.0,78,0.00,,---,0.00,VWS V14.01,2013-06-15 10:05:00,
2013-06-15 06:06:00,61.5,54.6,29.86,NW,317,0.0,11.0,78,0.00,,---,0.00,VWS V14.01,2013-06-15 10:06:00,
2013-06-15 06:10:00,61.7,54.8,29.86,NNW,343,3.0,9.0,78,0.00,,---,0.00,VWS V14.01,2013-06-15 10:10:00,
2013-06-15 06:11:00,61.6,54.7,29.86,NNW,340,7.0,8.0,78,0.00,,---,0.00,VWS V14.01,2013-06-15 10:11:00,
2013-06-15 06:15:00,61.8,54.9,29.87,WNW,291,3.0,10.0,78,0.00,,---,0.00,VWS V14.01,2013-06-15 10:15:00,
2013-06-15 06:16:00,61.7,54.8,29.87,NW,311,9.0,10.0,78,0.00,,---,0.00,VWS V14.01,2013-06-15 10:16:00,
2013-06-15 06:20:00,61.9,55.0,29.87,WNW,303,4.0,10.0,78,0.00,,---,0.00,VWS V14.01,2013-06-15 10:20:00,
2013-06-15 06:21:00,61.9,55.0,29.87,NW,305,6.0,7.0,78,0.00,,---,0.00,VWS V14.01,2013-06-15 10:21:00,
2013-06-15 06:25:00,62.1,55.2,29.87,NW,304,7.0,12.0,78,0.00,,---,0.00,VWS V14.01,2013-06-15 10:25:00,
2013-06-15 06:26:00,62.0,55.1,29.87,WSW,252,6.0,9.0,78,0.00,,---,0.00,VWS V14.01,2013-06-15 10:26:00,
2013-06-15 06:30:00,62.3,55.4,29.87,NW,318,3.0,9.0,78,0.00,,---,0.00,VWS V14.01,2013-06-15 10:30:00,
2013-06-15 06:31:00,62.2,55.3,29.87,NNW,330,0.0,7.0,78,0.00,,---,0.00,VWS V14.01,2013-06-15 10:31:00,
2013-06-15 06:35:00,62.5,55.6,29.87,NW,326,8.0,10.0,78,0.00,,---,0.00,VWS V14.01,2013-06-15 10:35:00,
2013-06-15 06:36:00,62.4,55.5,29.87,WNW,284,1.0,8.0,78,0.00,,---,0.00,VWS V14.01,2013-06-15 10:36:00,
2013-06-15 06:40:00,62.6,55.7,29.87,WNW,302,5.0,12.0,78,0.00,,---,0.00,VWS V14.01,2013-06-15 10:40:00,
2013-06-15 06:41:00,62.5,55.6,29.87,NNW,340,4.0,9.0,78,0.00,,---,0.00,VWS V14.01,2013-06-15 10:41:00,
2013-06-15 06:45:00,62.8,55.5,29.88,NW,305,4.0,10.0,77,0.00,,---,0.00,VWS V14.01,2013-06-15 10:45:00,
2013-06-15 06:46:00,62.7,55.8,29.88,NW,316,9.0,10.0,78,0.00,,---,0.00,VWS V14.01,2013-06-15 10:46:00,
2013-06-15 06:50:00,63.1,55.8,29.88,NNW,329,0.0,11.0,77,0.00,,---,0.00,VWS V14.01,2013-06-15 10:50:00,
2013-06-15 06:51:00,62.9,55.6,29.88,NW,313,11.0,11.0,77,0.00,,---,0.00,VWS V14.01,2013-06-15 10:51:00,
2013-06-15 06:55:00,63.3,55.6,29.88,NW,307,4.0,12.0,76,0.00,,---,0.00,VWS V14.01,2013-06-15 10:55:00,
2013-06-15 06:56:00,63.2,55.9,29.87,NNW,346,9.0,11.0,77,0.00,,---,0.00,VWS V14.01,2013-06-15 10:56:00,
2013-06-15 07:00:00,63.7,56.0,29.88,NW,315,10.0,11.0,76,0.00,,---,0.00,VWS V14.01,2013-06-15 11:00:00,
2013-06-15 07:01:00,63.5,55.8,29.88,NW,305,6.0,7.0,76,0.00,,---,0.00,VWS V14.01,2013-06-15 11:01:00,
2013-06-15 07:05:00,63.9,55.8,29.88,NNW,330,7.0,16.0,75,0.00,,---,0.00,VWS V14.01,2013-06-15 11:05:00,
2013-06-15 07:06:00,63.8,55.7,29.88,West,265,3.0,16.0,75,0.00,,---,0.00,VWS V14.01,2013-06-15 11:06:00,
2013-06-15 07:10:00,64.2,56.1,29.88,WNW,292,3.0,13.0,75,0.00,,---,0.00,VWS V14.01,2013-06-15 11:10:00,
2013-06-15 07:11:00,64.1,56.0,29.87,North,8,5.0,12.0,75,0.00,,---,0.00,VWS V14.01,2013-06-15 11:11:00,
2013-06-15 07:15:00,64.3,55.8,29.87,NNW,330,6.0,14.0,74,0.00,,---,0.00,VWS V14.01,2013-06-15 11:15:00,
2013-06-15 07:16:00,64.2,55.8,29.88,NNW,328,10.0,13.0,74,0.00,,---,0.00,VWS V14.01,2013-06-15 11:16:00,
2013-06-15 07:20:00,64.7,56.2,29.88,NNW,328,9.0,11.0,74,0.00,,---,0.00,VWS V14.01,2013-06-15 11:20:00,
2013-06-15 07:21:00,64.5,56.0,29.88,NW,321,4.0,7.0,74,0.00,,---,0.00,VWS V14.01,2013-06-15 11:21:00,
2013-06-15 07:25:00,65.0,56.2,29.88,North,355,6.0,11.0,73,0.00,,---,0.00,VWS V14.01,2013-06-15 11:25:00,
2013-06-15 07:26:00,64.8,56.3,29.88,NW,308,3.0,11.0,74,0.00,,---,0.00,VWS V14.01,2013-06-15 11:26:00,
2013-06-15 07:30:00,65.4,56.5,29.88,NW,321,3.0,9.0,73,0.00,,---,0.00,VWS V14.01,2013-06-15 11:30:00,
2013-06-15 07:31:00,65.2,56.3,29.88,NW,315,0.0,9.0,73,0.00,,---,0.00,VWS V14.01,2013-06-15 11:31:00,
2013-06-15 07:35:00,65.7,56.0,29.88,NW,316,6.0,10.0,71,0.00,,---,0.00,VWS V14.01,2013-06-15 11:35:00,
2013-06-15 07:36:00,65.6,56.3,29.88,NW,305,8.0,8.0,72,0.00,,---,0.00,VWS V14.01,2013-06-15 11:36:00,
2013-06-15 07:40:00,65.8,56.5,29.88,WNW,301,2.0,8.0,72,0.00,,---,0.00,VWS V14.01,2013-06-15 11:40:00,
2013-06-15 07:41:00,65.8,56.5,29.88,WNW,301,6.0,8.0,72,0.00,,---,0.00,VWS V14.01,2013-06-15 11:41:00,
2013-06-15 07:45:00,66.0,56.3,29.89,NNW,331,5.0,8.0,71,0.00,,---,0.00,VWS V14.01,2013-06-15 11:45:00,
2013-06-15 07:46:00,65.9,56.6,29.89,WNW,299,3.0,8.0,72,0.00,,---,0.00,VWS V14.01,2013-06-15 11:46:00,
2013-06-15 07:50:00,66.3,56.6,29.89,NNE,28,2.0,12.0,71,0.00,,---,0.00,VWS V14.01,2013-06-15 11:50:00,
2013-06-15 07:51:00,66.2,56.9,29.89,WNW,295,12.0,12.0,72,0.00,,---,0.00,VWS V14.01,2013-06-15 11:51:00,
2013-06-15 07:55:00,66.5,56.8,29.89,NW,315,2.0,10.0,71,0.00,,---,0.00,VWS V14.01,2013-06-15 11:55:00,
2013-06-15 07:56:00,66.4,56.3,29.89,NW,319,5.0,10.0,70,0.00,,---,0.00,VWS V14.01,2013-06-15 11:56:00,
2013-06-15 08:00:00,66.8,56.7,29.89,NW,317,9.0,11.0,70,0.00,,---,0.00,VWS V14.01,2013-06-15 12:00:00,
2013-06-15 08:01:00,66.7,57.0,29.89,SSW,207,0.0,7.0,71,0.00,,---,0.00,VWS V14.01,2013-06-15 12:01:00,
2013-06-15 08:05:00,67.0,56.1,29.89,NW,323,10.0,14.0,68,0.00,,---,0.00,VWS V14.01,2013-06-15 12:05:00,
2013-06-15 08:06:00,66.9,56.0,29.89,WNW,303,8.0,14.0,68,0.00,,---,0.00,VWS V14.01,2013-06-15 12:06:00,
2013-06-15 08:10:00,67.3,56.8,29.89,NW,313,2.0,13.0,69,0.00,,---,0.00,VWS V14.01,2013-06-15 12:10:00,
2013-06-15 08:11:00,67.1,56.2,29.89,NW,307,4.0,13.0,68,0.00,,---,0.00,VWS V14.01,2013-06-15 12:11:00,
2013-06-15 08:15:00,67.6,56.3,29.90,WNW,299,6.0,13.0,67,0.00,,---,0.00,VWS V14.01,2013-06-15 12:15:00,
2013-06-15 08:16:00,67.4,56.5,29.89,NW,307,7.0,11.0,68,0.00,,---,0.00,VWS V14.01,2013-06-15 12:16:00,
2013-06-15 08:20:00,67.7,56.0,29.90,NW,304,4.0,11.0,66,0.00,,---,0.00,VWS V14.01,2013-06-15 12:20:00,
2013-06-15 08:21:00,67.7,56.4,29.90,NNW,336,5.0,8.0,67,0.00,,---,0.00,VWS V14.01,2013-06-15 12:21:00,
2013-06-15 08:25:00,68.0,55.8,29.90,NNW,334,9.0,11.0,65,0.00,,---,0.00,VWS V14.01,2013-06-15 12:25:00,
2013-06-15 08:26:00,67.9,57.0,29.90,NNW,337,9.0,9.0,68,0.00,,---,0.00,VWS V14.01,2013-06-15 12:26:00,
2013-06-15 08:30:00,68.3,56.1,29.90,NNW,332,5.0,12.0,65,0.00,,---,0.00,VWS V14.01,2013-06-15 12:30:00,
2013-06-15 08:31:00,68.1,55.9,29.90,NNE,30,6.0,11.0,65,0.00,,---,0.00,VWS V14.01,2013-06-15 12:31:00,
2013-06-15 08:35:00,68.6,56.8,29.90,NW,317,8.0,9.0,66,0.00,,---,0.00,VWS V14.01,2013-06-15 12:35:00,
2013-06-15 08:36:00,68.4,56.2,29.90,NW,317,5.0,9.0,65,0.00,,---,0.00,VWS V14.01,2013-06-15 12:36:00,
2013-06-15 08:40:00,68.9,56.7,29.91,NW,311,0.0,9.0,65,0.00,,---,0.00,VWS V14.01,2013-06-15 12:40:00,
2013-06-15 08:41:00,68.8,56.6,29.90,NNW,335,3.0,9.0,65,0.00,,---,0.00,VWS V14.01,2013-06-15 12:41:00,
2013-06-15 08:45:00,69.0,56.8,29.91,WNW,293,5.0,13.0,65,0.00,,---,0.00,VWS V14.01,2013-06-15 12:45:00,
2013-06-15 08:46:00,69.0,56.3,29.91,NNW,347,9.0,13.0,64,0.00,,---,0.00,VWS V14.01,2013-06-15 12:46:00,
2013-06-15 08:50:00,69.3,57.0,29.91,WNW,294,0.0,8.0,65,0.00,,---,0.00,VWS V14.01,2013-06-15 12:50:00,
2013-06-15 08:51:00,69.1,57.3,29.91,NW,319,6.0,8.0,66,0.00,,---,0.00,VWS V14.01,2013-06-15 12:51:00,
2013-06-15 08:55:00,69.7,57.4,29.92,NW,313,5.0,9.0,65,0.00,,---,0.00,VWS V14.01,2013-06-15 12:55:00,
2013-06-15 08:56:00,69.4,57.1,29.91,NNW,335,3.0,9.0,65,0.00,,---,0.00,VWS V14.01,2013-06-15 12:56:00,
2013-06-15 09:00:00,70.1,57.8,29.92,WNW,296,5.0,8.0,65,0.00,,---,0.00,VWS V14.01,2013-06-15 13:00:00,
2013-06-15 09:01:00,69.8,57.9,29.92,NW,317,0.0,7.0,66,0.00,,---,0.00,VWS V14.01,2013-06-15 13:01:00,
2013-06-15 09:05:00,70.4,57.7,29.92,NW,318,4.0,9.0,64,0.00,,---,0.00,VWS V14.01,2013-06-15 13:05:00,
2013-06-15 09:06:00,70.3,57.1,29.92,NNW,332,3.0,9.0,63,0.00,,---,0.00,VWS V14.01,2013-06-15 13:06:00,
2013-06-15 09:10:00,70.9,57.2,29.92,WNW,298,3.0,7.0,62,0.00,,---,0.00,VWS V14.01,2013-06-15 13:10:00,
2013-06-15 09:11:00,70.7,57.5,29.92,NNW,332,7.0,7.0,63,0.00,,---,0.00,VWS V14.01,2013-06-15 13:11:00,
2013-06-15 09:15:00,71.3,57.6,29.92,NNW,348,2.0,10.0,62,0.00,,---,0.00,VWS V14.01,2013-06-15 13:15:00,
2013-06-15 09:16:00,71.1,57.4,29.92,NW,325,0.0,6.0,62,0.00,,---,0.00,VWS V14.01,2013-06-15 13:16:00,
2013-06-15 09:20:00,71.5,57.4,29.92,NNW,332,4.0,9.0,61,0.00,,---,0.00,VWS V14.01,2013-06-15 13:20:00,
2013-06-15 09:21:00,71.3,57.6,29.92,NNW,334,3.0,3.0,62,0.00,,---,0.00,VWS V14.01,2013-06-15 13:21:00,
2013-06-15 09:25:00,71.7,58.0,29.92,WNW,300,1.0,8.0,62,0.00,,---,0.00,VWS V14.01,2013-06-15 13:25:00,
2013-06-15 09:26:00,71.6,57.9,29.92,WNW,303,4.0,8.0,62,0.00,,---,0.00,VWS V14.01,2013-06-15 13:26:00,
2013-06-15 09:30:00,71.7,58.0,29.92,NW,317,3.0,8.0,62,0.00,,---,0.00,VWS V14.01,2013-06-15 13:30:00,
2013-06-15 09:31:00,71.7,58.0,29.92,NW,317,2.0,8.0,62,0.00,,---,0.00,VWS V14.01,2013-06-15 13:31:00,
2013-06-15 09:35:00,71.9,57.3,29.92,NNW,330,2.0,8.0,60,0.00,,---,0.00,VWS V14.01,2013-06-15 13:35:00,
2013-06-15 09:36:00,71.8,57.6,29.92,NW,305,7.0,8.0,61,0.00,,---,0.00,VWS V14.01,2013-06-15 13:36:00,
2013-06-15 09:40:00,72.0,57.4,29.92,NW,326,2.0,8.0,60,0.00,,---,0.00,VWS V14.01,2013-06-15 13:40:00,
2013-06-15 09:41:00,71.9,57.3,29.92,NW,312,5.0,8.0,60,0.00,,---,0.00,VWS V14.01,2013-06-15 13:41:00,
2013-06-15 09:45:00,72.5,56.9,29.93,WNW,296,5.0,10.0,58,0.00,,---,0.00,VWS V14.01,2013-06-15 13:45:00,
2013-06-15 09:46:00,72.2,57.6,29.92,NNW,332,2.0,6.0,60,0.00,,---,0.00,VWS V14.01,2013-06-15 13:46:00,
2013-06-15 09:50:00,72.8,56.7,29.93,NNW,348,0.0,9.0,57,0.00,,---,0.00,VWS V14.01,2013-06-15 13:50:00,
2013-06-15 09:51:00,72.6,56.5,29.93,North,359,8.0,9.0,57,0.00,,---,0.00,VWS V14.01,2013-06-15 13:51:00,
2013-06-15 09:55:00,73.2,56.1,29.93,North,3,6.0,9.0,55,0.00,,---,0.00,VWS V14.01,2013-06-15 13:55:00,
2013-06-15 09:56:00,73.0,56.4,29.93,NW,309,2.0,9.0,56,0.00,,---,0.00,VWS V14.01,2013-06-15 13:56:00,
2013-06-15 10:00:00,73.6,54.9,29.93,NNW,340,3.0,10.0,52,0.00,,---,0.00,VWS V14.01,2013-06-15 14:00:00,
2013-06-15 10:01:00,73.4,55.2,29.93,NNW,334,6.0,10.0,53,0.00,,---,0.00,VWS V14.01,2013-06-15 14:01:00,
2013-06-15 10:05:00,73.7,53.9,29.93,NNW,335,9.0,10.0,50,0.00,,---,0.00,VWS V14.01,2013-06-15 14:05:00,
2013-06-15 10:06:00,73.7,54.5,29.93,NW,323,7.0,10.0,51,0.00,,---,0.00,VWS V14.01,2013-06-15 14:06:00,
2013-06-15 10:10:00,73.5,52.6,29.93,NNW,335,1.0,12.0,48,0.00,,---,0.00,VWS V14.01,2013-06-15 14:10:00,
2013-06-15 10:11:00,73.7,53.4,29.93,North,355,9.0,12.0,49,0.00,,---,0.00,VWS V14.01,2013-06-15 14:11:00,
2013-06-15 10:15:00,73.4,53.7,29.93,NW,311,3.0,11.0,50,0.00,,---,0.00,VWS V14.01,2013-06-15 14:15:00,
2013-06-15 10:16:00,73.5,53.7,29.93,NNW,331,7.0,10.0,50,0.00,,---,0.00,VWS V14.01,2013-06-15 14:16:00,
2013-06-15 10:20:00,73.6,52.7,29.93,NW,319,5.0,9.0,48,0.00,,---,0.00,VWS V14.01,2013-06-15 14:20:00,
2013-06-15 10:21:00,73.5,53.7,29.93,NW,311,7.0,7.0,50,0.00,,---,0.00,VWS V14.01,2013-06-15 14:21:00,
2013-06-15 10:25:00,73.9,54.1,29.93,NNW,336,6.0,7.0,50,0.00,,---,0.00,VWS V14.01,2013-06-15 14:25:00,
2013-06-15 10:26:00,73.7,52.8,29.93,NNW,337,4.0,7.0,48,0.00,,---,0.00,VWS V14.01,2013-06-15 14:26:00,
2013-06-15 10:30:00,74.2,53.8,29.93,NNW,332,4.0,9.0,49,0.00,,---,0.00,VWS V14.01,2013-06-15 14:30:00,
2013-06-15 10:31:00,74.0,52.5,29.93,North,9,6.0,8.0,47,0.00,,---,0.00,VWS V14.01,2013-06-15 14:31:00,
2013-06-15 10:35:00,74.3,55.0,29.93,North,353,0.0,8.0,51,0.00,,---,0.00,VWS V14.01,2013-06-15 14:35:00,
2013-06-15 10:40:00,74.4,52.9,29.93,NW,318,8.0,9.0,47,0.00,,---,0.00,VWS V14.01,2013-06-15 14:40:00,
2013-06-15 10:45:00,74.8,54.4,29.93,NNW,335,6.0,6.0,49,0.00,,---,0.00,VWS V14.01,2013-06-15 14:45:00,
2013-06-15 10:46:00,74.6,54.2,29.93,NW,315,5.0,5.0,49,0.00,,---,0.00,VWS V14.01,2013-06-15 14:46:00,
2013-06-15 10:50:00,74.9,51.5,29.93,NNW,334,0.0,9.0,44,0.00,,---,0.00,VWS V14.01,2013-06-15 14:50:00,
2013-06-15 10:55:00,75.1,52.9,29.93,NNW,328,5.0,7.0,46,0.00,,---,0.00,VWS V14.01,2013-06-15 14:55:00,
2013-06-15 11:00:00,75.4,52.0,29.94,SSW,196,1.0,7.0,44,0.00,,---,0.00,VWS V14.01,2013-06-15 15:00:00,
2013-06-15 11:05:00,75.7,51.0,29.93,NW,324,5.0,6.0,42,0.00,,---,0.00,VWS V14.01,2013-06-15 15:05:00,
2013-06-15 11:10:00,75.9,51.8,29.93,NW,321,7.0,8.0,43,0.00,,---,0.00,VWS V14.01,2013-06-15 15:10:00,
2013-06-15 11:15:00,75.6,50.9,29.93,NNW,343,8.0,10.0,42,0.00,,---,0.00,VWS V14.01,2013-06-15 15:15:00,
2013-06-15 11:20:00,75.2,50.6,29.93,NW,321,7.0,8.0,42,0.00,,---,0.00,VWS V14.01,2013-06-15 15:20:00,
2013-06-15 11:25:00,75.0,52.8,29.93,WNW,303,3.0,6.0,46,0.00,,---,0.00,VWS V14.01,2013-06-15 15:25:00,
2013-06-15 11:30:00,75.4,52.0,29.93,WNW,284,1.0,8.0,44,0.00,,---,0.00,VWS V14.01,2013-06-15 15:30:00,
2013-06-15 11:35:00,75.7,51.6,29.93,NW,307,1.0,6.0,43,0.00,,---,0.00,VWS V14.01,2013-06-15 15:35:00,
2013-06-15 11:40:00,76.3,51.5,29.93,North,355,0.0,4.0,42,0.00,,---,0.00,VWS V14.01,2013-06-15 15:40:00,
2013-06-15 11:45:00,76.7,51.2,29.93,NNW,329,0.0,6.0,41,0.00,,---,0.00,VWS V14.01,2013-06-15 15:45:00,
2013-06-15 11:50:00,76.8,49.3,29.92,NNW,345,1.0,6.0,38,0.00,,---,0.00,VWS V14.01,2013-06-15 15:50:00,
2013-06-15 11:55:00,76.5,50.4,29.92,North,355,2.0,8.0,40,0.00,,---,0.00,VWS V14.01,2013-06-15 15:55:00,
2013-06-15 12:00:00,76.5,50.4,29.93,West,278,5.0,7.0,40,0.00,,---,0.00,VWS V14.01,2013-06-15 16:00:00,
2013-06-15 12:05:00,76.7,51.2,29.92,NW,320,0.0,5.0,41,0.00,,---,0.00,VWS V14.01,2013-06-15 16:05:00,
2013-06-15 12:10:00,76.9,50.1,29.92,NW,308,10.0,10.0,39,0.00,,---,0.00,VWS V14.01,2013-06-15 16:10:00,
2013-06-15 12:15:00,76.9,50.1,29.92,WNW,296,6.0,9.0,39,0.00,,---,0.00,VWS V14.01,2013-06-15 16:15:00,
2013-06-15 12:20:00,76.9,51.4,29.92,WNW,286,3.0,7.0,41,0.00,,---,0.00,VWS V14.01,2013-06-15 16:20:00,
2013-06-15 12:25:00,76.8,50.7,29.92,NW,318,2.0,6.0,40,0.00,,---,0.00,VWS V14.01,2013-06-15 16:25:00,
2013-06-15 12:30:00,77.1,51.6,29.92,WNW,303,3.0,11.0,41,0.00,,---,0.00,VWS V14.01,2013-06-15 16:30:00,
2013-06-15 12:35:00,77.3,49.7,29.92,NW,315,0.0,4.0,38,0.00,,---,0.00,VWS V14.01,2013-06-15 16:35:00,
2013-06-15 12:40:00,77.6,50.7,29.92,WNW,294,6.0,6.0,39,0.00,,---,0.00,VWS V14.01,2013-06-15 16:40:00,
2013-06-15 12:45:00,77.8,49.5,29.92,WSW,246,0.0,3.0,37,0.00,,---,0.00,VWS V14.01,2013-06-15 16:45:00,
2013-06-15 12:50:00,77.9,50.3,29.92,WNW,292,0.0,9.0,38,0.00,,---,0.00,VWS V14.01,2013-06-15 16:50:00,
2013-06-15 12:55:00,78.2,51.2,29.92,NW,317,2.0,2.0,39,0.00,,---,0.00,VWS V14.01,2013-06-15 16:55:00,
2013-06-15 13:00:00,78.0,49.7,29.92,North,359,0.0,7.0,37,0.00,,---,0.00,VWS V14.01,2013-06-15 17:00:00,
2013-06-15 13:05:00,77.6,48.6,29.92,NNW,336,3.0,5.0,36,0.00,,---,0.00,VWS V14.01,2013-06-15 17:05:00,
2013-06-15 13:10:00,77.4,50.5,29.92,NW,324,0.0,8.0,39,0.00,,---,0.00,VWS V14.01,2013-06-15 17:10:00,
2013-06-15 13:15:00,77.5,49.2,29.92,WNW,284,0.0,3.0,37,0.00,,---,0.00,VWS V14.01,2013-06-15 17:15:00,
2013-06-15 13:20:00,77.9,51.0,29.92,WNW,299,5.0,5.0,39,0.00,,---,0.00,VWS V14.01,2013-06-15 17:20:00,
2013-06-15 13:25:00,78.1,51.2,29.92,WNW,292,1.0,1.0,39,0.00,,---,0.00,VWS V14.01,2013-06-15 17:25:00,
2013-06-15 13:30:00,78.5,50.8,29.92,WNW,288,2.0,4.0,38,0.00,,---,0.00,VWS V14.01,2013-06-15 17:30:00,
2013-06-15 13:35:00,78.9,51.9,29.93,NW,307,0.0,4.0,39,0.00,,---,0.00,VWS V14.01,2013-06-15 17:35:00,
2013-06-15 13:40:00,79.3,50.8,29.93,WNW,283,1.0,3.0,37,0.00,,---,0.00,VWS V14.01,2013-06-15 17:40:00,
2013-06-15 13:45:00,79.4,49.4,29.92,WSW,249,1.0,2.0,35,0.00,,---,0.00,VWS V14.01,2013-06-15 17:45:00,
2013-06-15 13:50:00,79.6,51.8,29.92,WNW,296,0.0,3.0,38,0.00,,---,0.00,VWS V14.01,2013-06-15 17:50:00,
2013-06-15 13:55:00,79.7,51.2,29.92,WNW,282,0.0,0.0,37,0.00,,---,0.00,VWS V14.01,2013-06-15 17:55:00,
2013-06-15 14:00:00,80.0,49.9,29.92,NW,315,5.0,5.0,35,0.00,,---,0.00,VWS V14.01,2013-06-15 18:00:00,
2013-06-15 14:05:00,80.2,52.3,29.92,SSE,157,0.0,7.0,38,0.00,,---,0.00,VWS V14.01,2013-06-15 18:05:00,
2013-06-15 14:10:00,80.3,57.0,29.92,SSW,210,2.0,8.0,45,0.00,,---,0.00,VWS V14.01,2013-06-15 18:10:00,
2013-06-15 14:15:00,80.3,58.2,29.92,SW,215,8.0,8.0,47,0.00,,---,0.00,VWS V14.01,2013-06-15 18:15:00,
2013-06-15 14:20:00,80.4,57.1,29.92,SW,227,0.0,3.0,45,0.00,,---,0.00,VWS V14.01,2013-06-15 18:20:00,
2013-06-15 14:25:00,80.0,55.5,29.92,SW,218,6.0,6.0,43,0.00,,---,0.00,VWS V14.01,2013-06-15 18:25:00,
2013-06-15 14:30:00,79.0,55.2,29.92,WSW,245,1.0,5.0,44,0.00,,---,0.00,VWS V14.01,2013-06-15 18:30:00,
2013-06-15 14:35:00,78.4,55.3,29.92,South,179,7.0,7.0,45,0.00,,---,0.00,VWS V14.01,2013-06-15 18:35:00,
2013-06-15 14:40:00,78.0,54.3,29.92,South,180,7.0,8.0,44,0.00,,---,0.00,VWS V14.01,2013-06-15 18:40:00,
2013-06-15 14:45:00,77.8,54.2,29.91,SSE,166,5.0,7.0,44,0.00,,---,0.00,VWS V14.01,2013-06-15 18:45:00,
2013-06-15 14:50:00,77.7,52.8,29.91,South,179,7.0,9.0,42,0.00,,---,0.00,VWS V14.01,2013-06-15 18:50:00,
2013-06-15 14:55:00,77.8,50.9,29.91,SSW,201,0.0,4.0,39,0.00,,---,0.00,VWS V14.01,2013-06-15 18:55:00,
2013-06-15 15:00:00,78.1,52.5,29.91,South,182,0.0,6.0,41,0.00,,---,0.00,VWS V14.01,2013-06-15 19:00:00,
2013-06-15 15:05:00,78.7,56.2,29.91,NW,311,3.0,3.0,46,0.00,,---,0.00,VWS V14.01,2013-06-15 19:05:00,
2013-06-15 15:10:00,79.3,52.2,29.91,West,268,1.0,3.0,39,0.00,,---,0.00,VWS V14.01,2013-06-15 19:10:00,
2013-06-15 15:15:00,79.9,52.0,29.91,SW,235,5.0,7.0,38,0.00,,---,0.00,VWS V14.01,2013-06-15 19:15:00,
2013-06-15 15:20:00,78.7,60.2,29.91,South,186,15.0,15.0,53,0.00,,---,0.00,VWS V14.01,2013-06-15 19:20:00,
2013-06-15 15:25:00,76.2,60.4,29.91,SW,222,3.0,15.0,58,0.00,,---,0.00,VWS V14.01,2013-06-15 19:25:00,
2013-06-15 15:30:00,74.6,60.3,29.91,SSW,204,7.0,16.0,61,0.00,,---,0.00,VWS V14.01,2013-06-15 19:30:00,
2013-06-15 15:35:00,73.5,59.7,29.91,SW,227,5.0,13.0,62,0.00,,---,0.00,VWS V14.01,2013-06-15 19:35:00,
2013-06-15 15:40:00,73.1,60.2,29.91,SSW,199,12.0,12.0,64,0.00,,---,0.00,VWS V14.01,2013-06-15 19:40:00,
2013-06-15 15:45:00,72.7,60.7,29.91,WSW,242,8.0,15.0,66,0.00,,---,0.00,VWS V14.01,2013-06-15 19:45:00,
2013-06-15 15:50:00,72.3,61.2,29.91,SSW,194,16.0,16.0,68,0.00,,---,0.00,VWS V14.01,2013-06-15 19:50:00,
2013-06-15 15:55:00,71.5,62.0,29.91,South,191,18.0,18.0,72,0.00,,---,0.00,VWS V14.01,2013-06-15 19:55:00,
2013-06-15 16:00:00,70.9,61.8,29.91,South,176,10.0,20.0,73,0.00,,---,0.00,VWS V14.01,2013-06-15 20:00:00,
2013-06-15 16:05:00,70.7,62.0,29.91,SSW,201,7.0,12.0,74,0.00,,---,0.00,VWS V14.01,2013-06-15 20:05:00,
2013-06-15 16:10:00,70.4,61.7,29.91,South,186,9.0,15.0,74,0.00,,---,0.00,VWS V14.01,2013-06-15 20:10:00,
2013-06-15 16:15:00,70.3,61.6,29.90,SW,225,8.0,15.0,74,0.00,,---,0.00,VWS V14.01,2013-06-15 20:15:00,
2013-06-15 16:20:00,70.3,61.6,29.91,SSW,196,11.0,14.0,74,0.00,,---,0.00,VWS V14.01,2013-06-15 20:20:00,
2013-06-15 16:25:00,70.2,61.9,29.91,SW,228,12.0,14.0,75,0.00,,---,0.00,VWS V14.01,2013-06-15 20:25:00,
2013-06-15 16:30:00,70.2,61.5,29.90,South,184,11.0,21.0,74,0.00,,---,0.00,VWS V14.01,2013-06-15 20:30:00,
2013-06-15 16:35:00,70.0,61.3,29.91,South,190,10.0,13.0,74,0.00,,---,0.00,VWS V14.01,2013-06-15 20:35:00,
2013-06-15 16:40:00,69.8,61.5,29.90,SSW,206,5.0,16.0,75,0.00,,---,0.00,VWS V14.01,2013-06-15 20:40:00,
2013-06-15 16:45:00,69.6,61.3,29.91,South,181,18.0,18.0,75,0.00,,---,0.00,VWS V14.01,2013-06-15 20:45:00,
2013-06-15 16:50:00,69.6,61.3,29.90,South,176,3.0,16.0,75,0.00,,---,0.00,VWS V14.01,2013-06-15 20:50:00,
2013-06-15 16:55:00,69.6,61.3,29.90,South,178,11.0,17.0,75,0.00,,---,0.00,VWS V14.01,2013-06-15 20:55:00,
2013-06-15 17:00:00,69.4,61.1,29.90,SW,236,12.0,17.0,75,0.00,,---,0.00,VWS V14.01,2013-06-15 21:00:00,
2013-06-15 17:05:00,69.3,61.4,29.90,South,184,9.0,19.0,76,0.00,,---,0.00,VWS V14.01,2013-06-15 21:05:00,
2013-06-15 17:10:00,69.3,61.4,29.90,SSW,201,9.0,17.0,76,0.00,,---,0.00,VWS V14.01,2013-06-15 21:10:00,
2013-06-15 17:15:00,69.2,61.3,29.90,South,187,11.0,17.0,76,0.00,,---,0.00,VWS V14.01,2013-06-15 21:15:00,
2013-06-15 17:20:00,69.1,61.2,29.90,SSW,204,12.0,17.0,76,0.00,,---,0.00,VWS V14.01,2013-06-15 21:20:00,
2013-06-15 17:25:00,69.1,61.2,29.90,SSW,197,12.0,13.0,76,0.00,,---,0.00,VWS V14.01,2013-06-15 21:25:00,
2013-06-15 17:30:00,69.2,61.3,29.91,SE,146,3.0,14.0,76,0.00,,---,0.00,VWS V14.01,2013-06-15 21:30:00,
2013-06-15 17:35:00,69.3,61.4,29.90,SW,224,10.0,19.0,76,0.00,,---,0.00,VWS V14.01,2013-06-15 21:35:00,
2013-06-15 17:40:00,69.2,61.0,29.90,South,185,15.0,17.0,75,0.00,,---,0.00,VWS V14.01,2013-06-15 21:40:00,
2013-06-15 17:45:00,69.1,61.2,29.91,South,187,13.0,19.0,76,0.00,,---,0.00,VWS V14.01,2013-06-15 21:45:00,
2013-06-15 17:50:00,68.9,61.0,29.90,SSW,199,7.0,16.0,76,0.00,,---,0.00,VWS V14.01,2013-06-15 21:50:00,
2013-06-15 17:55:00,68.8,61.3,29.90,SSW,206,12.0,15.0,77,0.00,,---,0.00,VWS V14.01,2013-06-15 21:55:00,
2013-06-15 18:00:00,68.7,61.2,29.90,SW,222,9.0,14.0,77,0.00,,---,0.00,VWS V14.01,2013-06-15 22:00:00,
2013-06-15 18:05:00,68.7,61.2,29.90,SSW,195,9.0,13.0,77,0.00,,---,0.00,VWS V14.01,2013-06-15 22:05:00,
2013-06-15 18:10:00,68.7,61.2,29.90,SSW,198,10.0,13.0,77,0.00,,---,0.00,VWS V14.01,2013-06-15 22:10:00,
2013-06-15 18:15:00,68.4,60.9,29.90,WSW,238,11.0,14.0,77,0.00,,---,0.00,VWS V14.01,2013-06-15 22:15:00,
2013-06-15 18:20:00,68.3,60.8,29.90,SSW,209,3.0,17.0,77,0.00,,---,0.00,VWS V14.01,2013-06-15 22:20:00,
2013-06-15 18:25:00,68.2,60.7,29.90,SW,215,14.0,15.0,77,0.00,,---,0.00,VWS V14.01,2013-06-15 22:25:00,
2013-06-15 18:30:00,68.0,60.9,29.90,SSW,208,7.0,16.0,78,0.00,,---,0.00,VWS V14.01,2013-06-15 22:30:00,
2013-06-15 18:35:00,68.0,60.9,29.91,South,190,0.0,15.0,78,0.00,,---,0.00,VWS V14.01,2013-06-15 22:35:00,
2013-06-15 18:40:00,68.0,60.9,29.91,SSW,208,8.0,12.0,78,0.00,,---,0.00,VWS V14.01,2013-06-15 22:40:00,
2013-06-15 18:45:00,68.0,60.5,29.91,SSW,213,9.0,10.0,77,0.00,,---,0.00,VWS V14.01,2013-06-15 22:45:00,
2013-06-15 18:50:00,67.9,60.4,29.91,SSW,207,7.0,14.0,77,0.00,,---,0.00,VWS V14.01,2013-06-15 22:50:00,
2013-06-15 18:55:00,67.8,60.7,29.91,South,186,9.0,10.0,78,0.00,,---,0.00,VWS V14.01,2013-06-15 22:55:00,
2013-06-15 19:00:00,67.7,60.2,29.91,South,176,8.0,12.0,77,0.00,,---,0.00,VWS V14.01,2013-06-15 23:00:00,
2013-06-15 19:05:00,67.5,60.0,29.91,South,184,9.0,11.0,77,0.00,,---,0.00,VWS V14.01,2013-06-15 23:05:00,
2013-06-15 19:10:00,67.2,59.8,29.91,SW,232,3.0,14.0,77,0.00,,---,0.00,VWS V14.01,2013-06-15 23:10:00,
2013-06-15 19:15:00,67.1,59.7,29.91,South,191,11.0,11.0,77,0.00,,---,0.00,VWS V14.01,2013-06-15 23:15:00,
2013-06-15 19:20:00,67.0,59.6,29.92,SSW,195,9.0,12.0,77,0.00,,---,0.00,VWS V14.01,2013-06-15 23:20:00,
2013-06-15 19:25:00,67.0,59.9,29.91,SSW,205,10.0,15.0,78,0.00,,---,0.00,VWS V14.01,2013-06-15 23:25:00,
2013-06-15 19:30:00,67.1,59.7,29.91,SSW,206,9.0,14.0,77,0.00,,---,0.00,VWS V14.01,2013-06-15 23:30:00,
2013-06-15 19:35:00,67.2,60.1,29.91,SW,234,10.0,14.0,78,0.00,,---,0.00,VWS V14.01,2013-06-15 23:35:00,
2013-06-15 19:40:00,67.2,60.1,29.92,South,177,6.0,11.0,78,0.00,,---,0.00,VWS V14.01,2013-06-15 23:40:00,
2013-06-15 19:45:00,67.1,60.0,29.92,SW,229,10.0,11.0,78,0.00,,---,0.00,VWS V14.01,2013-06-15 23:45:00,
2013-06-15 19:50:00,67.1,60.0,29.92,SW,221,7.0,11.0,78,0.00,,---,0.00,VWS V14.01,2013-06-15 23:50:00,
2013-06-15 19:55:00,67.0,59.9,29.92,SW,215,8.0,11.0,78,0.00,,---,0.00,VWS V14.01,2013-06-15 23:55:00,
2013-06-15 20:00:00,67.0,59.9,29.92,SSW,199,11.0,11.0,78,0.00,,---,0.00,VWS V14.01,2013-06-16 00:00:00,
2013-06-15 20:05:00,66.9,59.8,29.92,SSW,212,5.0,12.0,78,0.00,,---,0.00,VWS V14.01,2013-06-16 00:05:00,
2013-06-15 20:10:00,67.0,59.6,29.92,SW,219,6.0,13.0,77,0.00,,---,0.00,VWS V14.01,2013-06-16 00:10:00,
2013-06-15 20:15:00,67.0,59.9,29.92,South,187,7.0,14.0,78,0.00,,---,0.00,VWS V14.01,2013-06-16 00:15:00,
2013-06-15 20:20:00,66.8,59.7,29.92,SSW,211,7.0,9.0,78,0.00,,---,0.00,VWS V14.01,2013-06-16 00:20:00,
2013-06-15 20:25:00,66.7,59.6,29.92,SSW,205,4.0,10.0,78,0.00,,---,0.00,VWS V14.01,2013-06-16 00:25:00,
2013-06-15 20:30:00,66.4,59.3,29.93,SSW,202,4.0,9.0,78,0.00,,---,0.00,VWS V14.01,2013-06-16 00:30:00,
2013-06-15 20:35:00,66.2,59.2,29.92,SSW,211,11.0,11.0,78,0.00,,---,0.00,VWS V14.01,2013-06-16 00:35:00,
2013-06-15 20:40:00,66.0,59.0,29.93,SW,217,7.0,9.0,78,0.00,,---,0.00,VWS V14.01,2013-06-16 00:40:00,
2013-06-15 20:45:00,65.9,58.9,29.93,SSW,209,9.0,13.0,78,0.00,,---,0.00,VWS V14.01,2013-06-16 00:45:00,
2013-06-15 20:50:00,65.7,58.7,29.93,SW,222,13.0,13.0,78,0.00,,---,0.00,VWS V14.01,2013-06-16 00:50:00,
2013-06-15 20:55:00,65.6,58.6,29.93,SW,218,10.0,10.0,78,0.00,,---,0.00,VWS V14.01,2013-06-16 00:55:00,
2013-06-15 21:00:00,65.5,58.5,29.93,SW,218,7.0,13.0,78,0.00,,---,0.00,VWS V14.01,2013-06-16 01:00:00,
2013-06-15 21:05:00,65.4,58.0,29.93,SSW,211,4.0,14.0,77,0.00,,---,0.00,VWS V14.01,2013-06-16 01:05:00,
2013-06-15 21:10:00,65.3,57.9,29.94,WSW,244,1.0,4.0,77,0.00,,---,0.00,VWS V14.01,2013-06-16 01:10:00,
2013-06-15 21:15:00,65.2,57.8,29.94,WSW,249,0.0,0.0,77,0.00,,---,0.00,VWS V14.01,2013-06-16 01:15:00,
2013-06-15 21:20:00,65.0,57.6,29.94,SW,230,0.0,0.0,77,0.00,,---,0.00,VWS V14.01,2013-06-16 01:20:00,
2013-06-15 21:25:00,64.8,57.4,29.95,SW,226,0.0,1.0,77,0.00,,---,0.00,VWS V14.01,2013-06-16 01:25:00,
2013-06-15 21:30:00,64.7,57.0,29.95,WSW,238,0.0,4.0,76,0.00,,---,0.00,VWS V14.01,2013-06-16 01:30:00,
2013-06-15 21:35:00,64.6,56.9,29.95,SW,224,0.0,2.0,76,0.00,,---,0.00,VWS V14.01,2013-06-16 01:35:00,
2013-06-15 21:40:00,64.5,56.8,29.95,WSW,244,0.0,1.0,76,0.00,,---,0.00,VWS V14.01,2013-06-16 01:40:00,
2013-06-15 21:45:00,64.4,56.7,29.94,SW,221,2.0,2.0,76,0.00,,---,0.00,VWS V14.01,2013-06-16 01:45:00,
2013-06-15 21:50:00,64.3,56.6,29.95,SW,228,0.0,0.0,76,0.00,,---,0.00,VWS V14.01,2013-06-16 01:50:00,
2013-06-15 21:55:00,64.2,56.5,29.95,SW,228,0.0,5.0,76,0.00,,---,0.00,VWS V14.01,2013-06-16 01:55:00,
2013-06-15 22:00:00,64.1,56.8,29.96,SW,226,7.0,7.0,77,0.00,,---,0.00,VWS V14.01,2013-06-16 02:00:00,
2013-06-15 22:05:00,64.4,56.7,29.96,SW,228,9.0,9.0,76,0.00,,---,0.00,VWS V14.01,2013-06-16 02:05:00,
2013-06-15 22:10:00,64.4,56.7,29.96,WSW,237,8.0,9.0,76,0.00,,---,0.00,VWS V14.01,2013-06-16 02:10:00,
2013-06-15 22:15:00,64.5,57.1,29.96,SW,227,5.0,10.0,77,0.00,,---,0.00,VWS V14.01,2013-06-16 02:15:00,
2013-06-15 22:20:00,64.6,57.2,29.95,SSW,213,5.0,10.0,77,0.00,,---,0.00,VWS V14.01,2013-06-16 02:20:00,
2013-06-15 22:25:00,64.7,57.3,29.95,SW,228,7.0,10.0,77,0.00,,---,0.00,VWS V14.01,2013-06-16 02:25:00,
2013-06-15 22:30:00,64.8,57.4,29.95,SSW,192,0.0,6.0,77,0.00,,---,0.00,VWS V14.01,2013-06-16 02:30:00,
2013-06-15 22:35:00,64.9,57.9,29.96,SSW,195,5.0,11.0,78,0.00,,---,0.00,VWS V14.01,2013-06-16 02:35:00,
2013-06-15 22:40:00,65.0,58.0,29.96,WSW,240,3.0,10.0,78,0.00,,---,0.00,VWS V14.01,2013-06-16 02:40:00,
2013-06-15 22:45:00,65.0,58.0,29.95,SSW,208,10.0,10.0,78,0.00,,---,0.00,VWS V14.01,2013-06-16 02:45:00,
2013-06-15 22:50:00,65.1,58.1,29.96,SW,217,10.0,10.0,78,0.00,,---,0.00,VWS V14.01,2013-06-16 02:50:00,
2013-06-15 22:55:00,65.2,58.2,29.96,SSW,211,8.0,10.0,78,0.00,,---,0.00,VWS V14.01,2013-06-16 02:55:00,
2013-06-15 23:00:00,65.2,58.2,29.96,SW,232,7.0,10.0,78,0.00,,---,0.00,VWS V14.01,2013-06-16 03:00:00,
2013-06-15 23:05:00,65.3,58.3,29.97,SSW,210,8.0,12.0,78,0.00,,---,0.00,VWS V14.01,2013-06-16 03:05:00,
2013-06-15 23:10:00,65.3,58.3,29.97,SW,236,8.0,8.0,78,0.00,,---,0.00,VWS V14.01,2013-06-16 03:10:00,
2013-06-15 23:15:00,65.2,58.2,29.97,SW,229,8.0,10.0,78,0.00,,---,0.00,VWS V14.01,2013-06-16 03:15:00,
2013-06-15 23:20:00,65.2,58.2,29.97,SW,222,2.0,7.0,78,0.00,,---,0.00,VWS V14.01,2013-06-16 03:20:00,
2013-06-15 23:25:00,65.0,58.0,29.97,SSW,200,5.0,8.0,78,0.00,,---,0.00,VWS V14.01,2013-06-16 03:25:00,
2013-06-15 23:30:00,65.0,58.0,29.97,SW,234,9.0,10.0,78,0.00,,---,0.00,VWS V14.01,2013-06-16 03:30:00,
2013-06-15 23:35:00,65.0,58.0,29.97,SSW,192,6.0,13.0,78,0.00,,---,0.00,VWS V14.01,2013-06-16 03:35:00,
2013-06-15 23:40:00,65.0,58.0,29.97,SSW,196,4.0,11.0,78,0.00,,---,0.00,VWS V14.01,2013-06-16 03:40:00,
2013-06-15 23:45:00,65.0,58.0,29.97,SSW,194,9.0,10.0,78,0.00,,---,0.00,VWS V14.01,2013-06-16 03:45:00,
2013-06-15 23:50:00,65.0,57.6,29.97,WSW,238,8.0,10.0,77,0.00,,---,0.00,VWS V14.01,2013-06-16 03:50:00,
2013-06-15 23:55:00,65.1,57.7,29.97,SSW,209,4.0,9.0,77,0.00,,---,0.00,VWS V14.01,2013-06-16 03:55:00,